createdAt,value
2023-01-19T00:02:55.204Z,1.74
2023-01-19T00:07:05.357Z,1.75
2023-01-19T00:11:14.183Z,1.77
2023-01-19T00:15:22.209Z,1.80
2023-01-19T00:19:30.240Z,1.86
2023-01-19T00:23:38.061Z,1.91
2023-01-19T00:27:49.338Z,1.92
2023-01-19T00:31:56.940Z,1.93
2023-01-19T00:36:05.262Z,1.92
2023-01-19T00:40:15.404Z,1.94
2023-01-19T00:44:23.159Z,1.97
2023-01-19T00:48:31.008Z,1.95
2023-01-19T00:52:39.488Z,1.93
2023-01-19T00:56:47.244Z,1.92
2023-01-19T01:00:57.894Z,1.93
2023-01-19T01:05:06.462Z,1.94
2023-01-19T01:09:14.482Z,1.93
2023-01-19T01:13:26.344Z,1.92
2023-01-19T01:17:35.838Z,1.90
2023-01-19T01:21:47.043Z,1.90
2023-01-19T01:25:55.008Z,1.88
2023-01-19T01:30:02.580Z,1.86
2023-01-19T01:34:10.570Z,1.83
2023-01-19T01:38:18.320Z,1.83
2023-01-19T01:42:30.227Z,1.81
2023-01-19T01:46:37.884Z,1.79
2023-01-19T01:51:02.930Z,1.77
2023-01-19T01:55:11.466Z,1.76
2023-01-19T01:59:27.288Z,1.73
2023-01-19T02:03:36.287Z,1.70
2023-01-19T02:08:05.493Z,1.69
2023-01-19T02:12:31.199Z,1.66
2023-01-19T02:16:43.058Z,1.66
2023-01-19T02:20:57.807Z,1.65
2023-01-19T02:25:06.580Z,1.64
2023-01-19T02:29:16.007Z,1.62
2023-01-19T02:33:24.093Z,1.62
2023-01-19T02:37:32.933Z,1.60
2023-01-19T02:41:44.203Z,1.60
2023-01-19T02:45:52.603Z,1.59
2023-01-19T02:50:01.424Z,1.57
2023-01-19T02:54:33.345Z,1.54
2023-01-19T02:58:46.796Z,1.50
2023-01-19T03:03:03.534Z,1.47
2023-01-19T03:07:13.303Z,1.43
2023-01-19T03:11:21.296Z,1.42
2023-01-19T03:15:34.358Z,1.41
2023-01-19T03:19:44.165Z,1.41
2023-01-19T03:23:53.742Z,1.40
2023-01-19T03:28:02.051Z,1.40
2023-01-19T03:32:13.301Z,1.40
2023-01-19T03:36:23.250Z,1.39
2023-01-19T03:40:32.960Z,1.39
2023-01-19T03:44:42.381Z,1.39
2023-01-19T03:48:51.013Z,1.39
2023-01-19T03:53:08.808Z,1.38
2023-01-19T03:57:16.003Z,1.36
2023-01-19T04:01:23.953Z,1.34
2023-01-19T04:05:32.804Z,1.31
2023-01-19T04:09:40.563Z,1.27
2023-01-19T04:13:48.694Z,1.23
2023-01-19T04:17:56.352Z,1.21
2023-01-19T04:22:05.002Z,1.19
2023-01-19T04:26:13.098Z,1.17
2023-01-19T04:30:21.611Z,1.17
2023-01-19T04:34:30.310Z,1.19
2023-01-19T04:38:38.751Z,1.20
2023-01-19T04:42:48.531Z,1.18
2023-01-19T04:46:56.496Z,1.20
2023-01-19T04:51:04.139Z,1.21
2023-01-19T04:55:13.390Z,1.22
2023-01-19T04:59:21.695Z,1.23
2023-01-19T05:03:29.955Z,1.22
2023-01-19T05:07:37.862Z,1.23
2023-01-19T05:11:45.450Z,1.22
2023-01-19T05:15:52.896Z,1.21
2023-01-19T05:20:00.423Z,1.21
2023-01-19T05:24:10.740Z,1.23
2023-01-19T05:28:18.664Z,1.23
2023-01-19T05:32:26.045Z,1.23
2023-01-19T05:36:34.095Z,1.22
2023-01-19T05:40:41.843Z,1.22
2023-01-19T05:44:49.521Z,1.23
2023-01-19T05:48:57.799Z,1.25
2023-01-19T05:53:05.916Z,1.24
2023-01-19T05:57:13.417Z,1.20
2023-01-19T06:01:20.765Z,1.17
2023-01-19T06:05:29.019Z,1.18
2023-01-19T06:09:36.670Z,1.19
2023-01-19T06:13:44.558Z,1.20
2023-01-19T06:17:51.984Z,1.20
2023-01-19T06:22:00.117Z,1.18
2023-01-19T06:26:08.502Z,1.20
2023-01-19T06:30:17.351Z,1.19
2023-01-19T06:34:29.230Z,1.19
2023-01-19T06:38:39.516Z,1.19
2023-01-19T06:42:47.651Z,1.19
2023-01-19T06:47:15.317Z,1.18
2023-01-19T06:51:23.852Z,1.19
2023-01-19T06:55:31.797Z,1.18
2023-01-19T06:59:41.778Z,1.14
2023-01-19T07:03:49.299Z,1.05
2023-01-19T07:07:57.919Z,0.97
2023-01-19T07:12:07.069Z,0.88
2023-01-19T07:16:16.079Z,0.77
2023-01-19T07:20:24.565Z,0.72
2023-01-19T07:24:33.904Z,0.73
2023-01-19T07:28:42.046Z,0.71
2023-01-19T07:32:49.326Z,0.66
2023-01-19T07:36:58.735Z,0.64
2023-01-19T07:41:07.714Z,0.64
2023-01-19T07:45:16.413Z,0.60
2023-01-19T07:49:24.149Z,0.59
2023-01-19T07:53:31.477Z,0.53
2023-01-19T07:57:39.230Z,0.45
2023-01-19T08:01:46.857Z,0.40
2023-01-19T08:05:57.881Z,0.39
2023-01-19T08:10:06.058Z,0.36
2023-01-19T08:14:14.083Z,0.35
2023-01-19T08:18:22.141Z,0.38
2023-01-19T08:22:29.649Z,0.43
2023-01-19T08:26:39.181Z,0.46
2023-01-19T08:30:54.288Z,0.52
2023-01-19T08:35:02.361Z,0.61
2023-01-19T08:39:14.361Z,0.59
2023-01-19T08:43:22.278Z,0.59
2023-01-19T08:47:30.912Z,0.58
2023-01-19T08:51:38.451Z,0.56
2023-01-19T08:55:46.109Z,0.56
2023-01-19T08:59:53.985Z,0.58
2023-01-19T09:04:01.866Z,0.64
2023-01-19T09:08:11.070Z,0.70
2023-01-19T09:12:18.704Z,0.73
2023-01-19T09:16:27.303Z,0.72
2023-01-19T09:20:38.696Z,0.75
2023-01-19T09:24:46.433Z,0.76
2023-01-19T09:28:54.723Z,0.80
2023-01-19T09:33:06.618Z,0.86
2023-01-19T09:37:14.217Z,0.95
2023-01-19T09:41:25.140Z,1.05
2023-01-19T09:45:38.473Z,1.11
2023-01-19T09:49:48.824Z,1.10
2023-01-19T09:54:01.620Z,1.04
2023-01-19T09:58:13.204Z,1.01
2023-01-19T10:02:37.285Z,1.00
2023-01-19T10:06:46.389Z,1.03
2023-01-19T10:10:58.629Z,1.06
2023-01-19T10:15:14.336Z,1.08
2023-01-19T10:19:27.416Z,1.12
2023-01-19T10:23:45.173Z,1.18
2023-01-19T10:27:52.730Z,1.25
2023-01-19T10:32:05.810Z,1.29
2023-01-19T10:36:20.243Z,1.33
2023-01-19T10:40:35.772Z,1.38
2023-01-19T10:44:46.049Z,1.36
2023-01-19T10:48:55.285Z,1.39
2023-01-19T10:53:05.835Z,1.46
2023-01-19T10:57:21.857Z,1.53
2023-01-19T11:01:31.474Z,1.59
2023-01-19T11:05:42.238Z,1.60
2023-01-19T11:09:49.931Z,1.62
2023-01-19T11:14:11.625Z,1.63
2023-01-19T11:18:28.623Z,1.72
2023-01-19T11:22:37.214Z,1.80
2023-01-19T11:26:48.030Z,1.82
2023-01-19T11:31:00.750Z,1.86
2023-01-19T11:35:35.583Z,1.91
2023-01-19T11:39:51.740Z,1.94
2023-01-19T11:44:01.792Z,1.94
2023-01-19T11:48:20.360Z,2.00
2023-01-19T11:52:31.747Z,2.08
2023-01-19T11:56:39.525Z,2.09
2023-01-19T12:00:50.127Z,2.08
2023-01-19T12:05:00.611Z,2.12
2023-01-19T12:09:13.310Z,2.19
2023-01-19T12:13:26.838Z,2.25
2023-01-19T12:17:37.767Z,2.29
2023-01-19T12:21:48.275Z,2.33
2023-01-19T12:26:05.997Z,2.35
2023-01-19T12:30:21.168Z,2.36
2023-01-19T12:34:38.389Z,2.40
2023-01-19T12:38:53.976Z,2.43
2023-01-19T12:43:05.379Z,2.43
2023-01-19T12:47:24.530Z,2.43
2023-01-19T12:51:32.793Z,2.43
2023-01-19T12:55:47.527Z,2.51
2023-01-19T13:00:01.452Z,2.61
2023-01-19T13:04:31.000Z,2.67
2023-01-19T13:09:00.007Z,2.70
2023-01-19T13:13:20.242Z,2.74
2023-01-19T13:17:35.491Z,2.79
2023-01-19T13:21:45.641Z,2.85
2023-01-19T13:26:05.330Z,2.91
2023-01-19T13:30:19.197Z,2.90
2023-01-19T13:34:28.479Z,2.89
2023-01-19T13:38:36.368Z,2.92
2023-01-19T13:42:46.139Z,2.94
2023-01-19T13:46:54.626Z,2.92
2023-01-19T13:51:08.430Z,2.90
2023-01-19T13:55:19.133Z,2.88
2023-01-19T13:59:27.384Z,2.85
2023-01-19T14:03:37.230Z,2.84
2023-01-19T14:07:45.862Z,2.87
2023-01-19T14:16:29.942Z,2.89
2023-01-19T14:20:37.884Z,2.81
2023-01-19T14:24:46.007Z,2.78
2023-01-19T14:28:54.215Z,2.73
2023-01-19T14:33:01.864Z,2.65
2023-01-19T14:37:20.211Z,2.57
2023-01-19T14:41:31.446Z,2.48
2023-01-19T14:45:42.532Z,2.39
2023-01-19T14:49:51.774Z,2.31
2023-01-19T14:54:01.128Z,2.22
2023-01-19T14:58:14.065Z,2.13
2023-01-19T15:02:22.212Z,2.01
2023-01-19T15:06:29.764Z,1.92
2023-01-19T15:10:38.252Z,1.85
2023-01-19T15:14:46.277Z,1.73
2023-01-19T15:18:54.533Z,1.66
2023-01-19T15:23:02.727Z,1.59
2023-01-19T15:27:15.130Z,1.53
2023-01-19T15:31:24.721Z,1.46
2023-01-19T15:35:32.551Z,1.40
2023-01-19T15:39:41.770Z,1.32
2023-01-19T15:43:49.679Z,1.23
2023-01-19T15:47:57.273Z,1.16
2023-01-19T15:52:05.073Z,1.11
2023-01-19T15:56:17.367Z,1.04
2023-01-19T16:00:26.811Z,0.97
2023-01-19T16:04:34.732Z,0.90
2023-01-19T16:08:43.792Z,0.85
2023-01-19T16:12:52.586Z,0.77
2023-01-19T16:17:02.195Z,0.66
2023-01-19T16:21:09.979Z,0.51
2023-01-19T16:25:17.891Z,0.42
2023-01-19T16:29:26.593Z,0.34
2023-01-19T16:33:34.883Z,0.25
2023-01-19T16:37:43.107Z,0.14
2023-01-19T16:41:52.151Z,0.05
2023-01-19T16:46:02.125Z,0.06
2023-01-19T16:50:13.622Z,0.11
2023-01-19T16:54:23.469Z,0.20
2023-01-19T16:58:31.263Z,0.30
2023-01-19T17:02:39.653Z,0.36
2023-01-19T17:06:48.000Z,0.38
2023-01-19T17:10:56.439Z,0.35
2023-01-19T17:15:04.676Z,0.29
2023-01-19T17:19:16.739Z,0.22
2023-01-19T17:23:26.256Z,0.13
2023-01-19T17:27:36.023Z,0.07
2023-01-19T17:31:44.493Z,0.04
2023-01-19T17:35:53.784Z,0.01
2023-01-19T17:40:02.212Z,-0.11
2023-01-19T17:44:12.492Z,-0.17
2023-01-19T17:48:21.768Z,-0.11
2023-01-19T17:52:29.669Z,-0.08
2023-01-19T17:56:39.070Z,-0.09
2023-01-19T18:00:46.456Z,-0.12
2023-01-19T18:04:56.507Z,-0.18
2023-01-19T18:09:05.417Z,-0.26
2023-01-19T18:13:12.940Z,-0.34
2023-01-19T18:17:21.061Z,-0.42
2023-01-19T18:21:30.873Z,-0.49
2023-01-19T18:25:39.964Z,-0.54
2023-01-19T18:29:47.684Z,-0.54
2023-01-19T18:33:55.559Z,-0.54
2023-01-19T18:38:03.228Z,-0.63
2023-01-19T18:42:11.209Z,-0.66
2023-01-19T18:46:21.328Z,-0.69
2023-01-19T18:50:29.288Z,-0.81
2023-01-19T18:54:37.463Z,-0.86
2023-01-19T18:58:45.931Z,-0.91
2023-01-19T19:02:55.991Z,-0.98
2023-01-19T19:07:03.921Z,-1.05
2023-01-19T19:11:14.078Z,-1.15
2023-01-19T19:15:22.270Z,-1.21
2023-01-19T19:19:30.084Z,-1.19
2023-01-19T19:23:40.096Z,-1.18
2023-01-19T19:27:48.624Z,-1.19
2023-01-19T19:31:56.989Z,-1.23
2023-01-19T19:36:05.206Z,-1.29
2023-01-19T19:40:15.434Z,-1.34
2023-01-19T19:44:24.029Z,-1.38
2023-01-19T19:48:31.722Z,-1.40
2023-01-19T19:52:42.840Z,-1.40
2023-01-19T19:56:52.495Z,-1.36
2023-01-19T20:01:04.342Z,-1.28
2023-01-19T20:05:12.995Z,-1.18
2023-01-19T20:09:20.643Z,-1.17
2023-01-19T20:13:30.111Z,-1.23
2023-01-19T20:17:39.351Z,-1.28
2023-01-19T20:21:46.926Z,-1.30
2023-01-19T20:25:55.122Z,-1.36
2023-01-19T20:30:04.009Z,-1.41
2023-01-19T20:34:12.633Z,-1.46
2023-01-19T20:38:22.812Z,-1.51
2023-01-19T20:42:31.075Z,-1.49
2023-01-19T20:46:39.148Z,-1.47
2023-01-19T20:50:46.630Z,-1.47
2023-01-19T20:54:55.897Z,-1.45
2023-01-19T20:59:03.406Z,-1.43
2023-01-19T21:03:11.536Z,-1.43
2023-01-19T21:07:19.440Z,-1.46
2023-01-19T21:11:27.906Z,-1.52
2023-01-19T21:15:36.505Z,-1.56
2023-01-19T21:19:45.261Z,-1.57
2023-01-19T21:23:54.050Z,-1.54
2023-01-19T21:28:02.039Z,-1.51
2023-01-19T21:32:10.145Z,-1.53
2023-01-19T21:36:18.107Z,-1.53
2023-01-19T21:40:26.202Z,-1.51
2023-01-19T21:44:33.963Z,-1.49
2023-01-19T21:48:42.102Z,-1.50
2023-01-19T21:52:50.393Z,-1.50
2023-01-19T21:56:58.551Z,-1.48
2023-01-19T22:01:14.213Z,-1.46
2023-01-19T22:05:22.500Z,-1.46
2023-01-19T22:09:31.754Z,-1.46
2023-01-19T22:13:40.269Z,-1.45
2023-01-19T22:17:48.458Z,-1.44
2023-01-19T22:21:56.161Z,-1.42
2023-01-19T22:26:03.772Z,-1.40
2023-01-19T22:30:13.141Z,-1.38
2023-01-19T22:34:21.189Z,-1.35
2023-01-19T22:38:28.689Z,-1.32
2023-01-19T22:42:36.400Z,-1.32
2023-01-19T22:46:44.189Z,-1.34
2023-01-19T22:50:51.698Z,-1.33
2023-01-19T22:55:00.203Z,-1.33
2023-01-19T22:59:08.191Z,-1.35
2023-01-19T23:03:16.157Z,-1.37
2023-01-19T23:07:23.941Z,-1.39
2023-01-19T23:11:35.939Z,-1.37
2023-01-19T23:15:43.637Z,-1.31
2023-01-19T23:19:52.064Z,-1.25
2023-01-19T23:24:00.785Z,-1.19
2023-01-19T23:28:09.260Z,-1.15
2023-01-19T23:32:17.680Z,-1.13
2023-01-19T23:36:26.580Z,-1.16
2023-01-19T23:40:34.457Z,-1.18
2023-01-19T23:44:44.278Z,-1.20
2023-01-19T23:48:52.152Z,-1.23
2023-01-19T23:52:59.689Z,-1.28
2023-01-19T23:57:07.620Z,-1.32
